sensor_id;sensor_type;location;lat;lon;timestamp;P1;durP1;ratioP1;P2;durP2;ratioP2
37411;SDS011;23278;52.110;6.050;2024-02-14T00:00:06;6.53;;;3.28;;
37411;SDS011;23278;52.110;6.050;2024-02-14T00:02:35;4.40;;;2.20;;
37411;SDS011;23278;52.110;6.050;2024-02-14T00:05:02;4.22;;;2.78;;
37411;SDS011;23278;52.110;6.050;2024-02-14T00:07:30;4.07;;;3.10;;
37411;SDS011;23278;52.110;6.050;2024-02-14T00:09:56;3.83;;;2.80;;
37411;SDS011;23278;52.110;6.050;2024-02-14T00:12:21;6.00;;;2.95;;
37411;SDS011;23278;52.110;6.050;2024-02-14T00:14:50;5.93;;;3.28;;
37411;SDS011;23278;52.110;6.050;2024-02-14T00:17:16;3.53;;;3.22;;
37411;SDS011;23278;52.110;6.050;2024-02-14T00:19:42;3.35;;;3.05;;
37411;SDS011;23278;52.110;6.050;2024-02-14T00:22:08;3.75;;;3.38;;
37411;SDS011;23278;52.110;6.050;2024-02-14T00:24:34;3.28;;;2.90;;
37411;SDS011;23278;52.110;6.050;2024-02-14T00:27:01;3.85;;;3.08;;
37411;SDS011;23278;52.110;6.050;2024-02-14T00:29:28;4.18;;;3.20;;
37411;SDS011;23278;52.110;6.050;2024-02-14T00:31:54;3.38;;;2.85;;
37411;SDS011;23278;52.110;6.050;2024-02-14T00:34:21;6.30;;;3.72;;
37411;SDS011;23278;52.110;6.050;2024-02-14T00:36:47;4.60;;;4.15;;
37411;SDS011;23278;52.110;6.050;2024-02-14T00:39:12;7.18;;;3.38;;
37411;SDS011;23278;52.110;6.050;2024-02-14T00:41:38;5.60;;;4.00;;
37411;SDS011;23278;52.110;6.050;2024-02-14T00:44:04;3.38;;;2.95;;
37411;SDS011;23278;52.110;6.050;2024-02-14T00:46:30;3.85;;;3.45;;
37411;SDS011;23278;52.110;6.050;2024-02-14T00:48:56;4.50;;;2.97;;
37411;SDS011;23278;52.110;6.050;2024-02-14T00:51:22;3.38;;;3.05;;
37411;SDS011;23278;52.110;6.050;2024-02-14T00:53:48;3.22;;;2.92;;
37411;SDS011;23278;52.110;6.050;2024-02-14T00:56:14;3.05;;;2.60;;
37411;SDS011;23278;52.110;6.050;2024-02-14T00:58:40;4.13;;;3.05;;
37411;SDS011;23278;52.110;6.050;2024-02-14T01:01:06;3.75;;;3.45;;
37411;SDS011;23278;52.110;6.050;2024-02-14T01:03:32;3.40;;;2.97;;
37411;SDS011;23278;52.110;6.050;2024-02-14T01:05:58;5.30;;;3.75;;
37411;SDS011;23278;52.110;6.050;2024-02-14T01:08:24;4.88;;;3.30;;
37411;SDS011;23278;52.110;6.050;2024-02-14T01:10:50;4.90;;;3.88;;
37411;SDS011;23278;52.110;6.050;2024-02-14T01:13:17;5.88;;;4.05;;
37411;SDS011;23278;52.110;6.050;2024-02-14T01:15:44;5.68;;;4.72;;
37411;SDS011;23278;52.110;6.050;2024-02-14T01:18:10;5.85;;;5.25;;
37411;SDS011;23278;52.110;6.050;2024-02-14T01:20:35;9.77;;;5.60;;
37411;SDS011;23278;52.110;6.050;2024-02-14T01:23:02;6.15;;;5.30;;
37411;SDS011;23278;52.110;6.050;2024-02-14T01:25:31;5.30;;;4.80;;
37411;SDS011;23278;52.110;6.050;2024-02-14T01:27:58;6.20;;;5.60;;
37411;SDS011;23278;52.110;6.050;2024-02-14T01:30:25;6.65;;;5.95;;
37411;SDS011;23278;52.110;6.050;2024-02-14T01:32:52;6.10;;;5.30;;
37411;SDS011;23278;52.110;6.050;2024-02-14T01:35:18;6.50;;;5.90;;
37411;SDS011;23278;52.110;6.050;2024-02-14T01:37:44;7.75;;;6.18;;
37411;SDS011;23278;52.110;6.050;2024-02-14T01:40:11;7.38;;;6.68;;
37411;SDS011;23278;52.110;6.050;2024-02-14T01:42:50;7.03;;;6.32;;
37411;SDS011;23278;52.110;6.050;2024-02-14T01:45:17;9.23;;;7.55;;
37411;SDS011;23278;52.110;6.050;2024-02-14T01:47:57;7.25;;;6.63;;
37411;SDS011;23278;52.110;6.050;2024-02-14T01:50:23;10.50;;;6.38;;
37411;SDS011;23278;52.110;6.050;2024-02-14T01:52:54;7.65;;;6.78;;
37411;SDS011;23278;52.110;6.050;2024-02-14T01:55:44;9.07;;;6.75;;
37411;SDS011;23278;52.110;6.050;2024-02-14T01:58:10;7.78;;;6.18;;
37411;SDS011;23278;52.110;6.050;2024-02-14T02:00:36;8.60;;;6.50;;
37411;SDS011;23278;52.110;6.050;2024-02-14T02:03:07;9.15;;;6.15;;
37411;SDS011;23278;52.110;6.050;2024-02-14T02:05:34;7.70;;;6.78;;
37411;SDS011;23278;52.110;6.050;2024-02-14T02:07:59;6.95;;;5.93;;
37411;SDS011;23278;52.110;6.050;2024-02-14T02:10:26;9.00;;;6.82;;
37411;SDS011;23278;52.110;6.050;2024-02-14T02:13:15;8.35;;;7.55;;
37411;SDS011;23278;52.110;6.050;2024-02-14T02:16:37;8.25;;;7.28;;
37411;SDS011;23278;52.110;6.050;2024-02-14T02:28:23;8.68;;;7.78;;
37411;SDS011;23278;52.110;6.050;2024-02-14T02:31:10;8.18;;;6.95;;
37411;SDS011;23278;52.110;6.050;2024-02-14T02:33:38;8.90;;;7.97;;
37411;SDS011;23278;52.110;6.050;2024-02-14T02:36:04;12.02;;;7.95;;
37411;SDS011;23278;52.110;6.050;2024-02-14T02:38:52;9.60;;;8.25;;
37411;SDS011;23278;52.110;6.050;2024-02-14T02:41:38;10.07;;;7.85;;
37411;SDS011;23278;52.110;6.050;2024-02-14T02:44:23;13.75;;;8.73;;
37411;SDS011;23278;52.110;6.050;2024-02-14T02:47:07;11.20;;;8.15;;
37411;SDS011;23278;52.110;6.050;2024-02-14T02:49:53;9.60;;;8.57;;
37411;SDS011;23278;52.110;6.050;2024-02-14T02:52:27;10.23;;;7.93;;
37411;SDS011;23278;52.110;6.050;2024-02-14T02:55:21;10.70;;;8.75;;
37411;SDS011;23278;52.110;6.050;2024-02-14T03:00:20;8.82;;;8.00;;
37411;SDS011;23278;52.110;6.050;2024-02-14T03:02:50;9.68;;;8.43;;
37411;SDS011;23278;52.110;6.050;2024-02-14T03:05:35;9.35;;;8.45;;
37411;SDS011;23278;52.110;6.050;2024-02-14T03:08:13;9.60;;;8.63;;
37411;SDS011;23278;52.110;6.050;2024-02-14T03:11:04;8.38;;;7.57;;
37411;SDS011;23278;52.110;6.050;2024-02-14T03:13:51;10.85;;;8.20;;
37411;SDS011;23278;52.110;6.050;2024-02-14T03:16:37;8.30;;;7.53;;
37411;SDS011;23278;52.110;6.050;2024-02-14T03:19:04;8.88;;;7.70;;
37411;SDS011;23278;52.110;6.050;2024-02-14T03:21:30;7.90;;;7.20;;
37411;SDS011;23278;52.110;6.050;2024-02-14T03:24:03;7.65;;;6.88;;
37411;SDS011;23278;52.110;6.050;2024-02-14T03:26:34;7.50;;;6.75;;
37411;SDS011;23278;52.110;6.050;2024-02-14T03:29:01;7.47;;;6.78;;
37411;SDS011;23278;52.110;6.050;2024-02-14T03:31:31;9.35;;;7.75;;
37411;SDS011;23278;52.110;6.050;2024-02-14T03:33:57;7.82;;;7.05;;
37411;SDS011;23278;52.110;6.050;2024-02-14T03:36:24;10.55;;;8.13;;
37411;SDS011;23278;52.110;6.050;2024-02-14T03:38:53;8.02;;;7.22;;
37411;SDS011;23278;52.110;6.050;2024-02-14T03:41:19;9.75;;;8.85;;
37411;SDS011;23278;52.110;6.050;2024-02-14T03:43:45;9.20;;;8.35;;
37411;SDS011;23278;52.110;6.050;2024-02-14T03:46:11;10.93;;;8.50;;
37411;SDS011;23278;52.110;6.050;2024-02-14T03:48:39;11.15;;;7.90;;
37411;SDS011;23278;52.110;6.050;2024-02-14T03:51:07;11.55;;;10.35;;
37411;SDS011;23278;52.110;6.050;2024-02-14T03:53:32;7.88;;;7.07;;
37411;SDS011;23278;52.110;6.050;2024-02-14T03:55:58;9.50;;;7.85;;
37411;SDS011;23278;52.110;6.050;2024-02-14T03:58:24;8.27;;;7.47;;
37411;SDS011;23278;52.110;6.050;2024-02-14T04:00:50;8.95;;;8.02;;
37411;SDS011;23278;52.110;6.050;2024-02-14T04:03:17;11.10;;;8.32;;
37411;SDS011;23278;52.110;6.050;2024-02-14T04:05:43;10.20;;;9.20;;
37411;SDS011;23278;52.110;6.050;2024-02-14T04:08:10;12.40;;;11.20;;
37411;SDS011;23278;52.110;6.050;2024-02-14T04:10:36;14.00;;;12.15;;
37411;SDS011;23278;52.110;6.050;2024-02-14T04:13:03;13.07;;;11.70;;
37411;SDS011;23278;52.110;6.050;2024-02-14T04:15:33;16.77;;;12.45;;
37411;SDS011;23278;52.110;6.050;2024-02-14T04:18:05;17.02;;;13.82;;
37411;SDS011;23278;52.110;6.050;2024-02-14T04:20:31;17.27;;;13.75;;
37411;SDS011;23278;52.110;6.050;2024-02-14T04:22:57;26.17;;;14.98;;
37411;SDS011;23278;52.110;6.050;2024-02-14T04:25:24;22.42;;;15.02;;
37411;SDS011;23278;52.110;6.050;2024-02-14T04:27:50;20.55;;;14.95;;
37411;SDS011;23278;52.110;6.050;2024-02-14T04:30:15;19.92;;;16.15;;
37411;SDS011;23278;52.110;6.050;2024-02-14T04:33:01;21.27;;;17.17;;
37411;SDS011;23278;52.110;6.050;2024-02-14T04:35:28;20.45;;;17.48;;
37411;SDS011;23278;52.110;6.050;2024-02-14T04:37:53;29.05;;;19.13;;
37411;SDS011;23278;52.110;6.050;2024-02-14T04:40:20;25.80;;;18.42;;
37411;SDS011;23278;52.110;6.050;2024-02-14T04:42:46;28.13;;;19.95;;
37411;SDS011;23278;52.110;6.050;2024-02-14T04:45:12;28.45;;;20.58;;
37411;SDS011;23278;52.110;6.050;2024-02-14T04:47:52;21.55;;;18.00;;
37411;SDS011;23278;52.110;6.050;2024-02-14T04:50:18;29.60;;;20.70;;
37411;SDS011;23278;52.110;6.050;2024-02-14T04:52:44;33.65;;;22.38;;
37411;SDS011;23278;52.110;6.050;2024-02-14T04:55:10;31.33;;;23.10;;
37411;SDS011;23278;52.110;6.050;2024-02-14T04:57:36;26.90;;;21.50;;
37411;SDS011;23278;52.110;6.050;2024-02-14T05:00:03;35.13;;;22.17;;
37411;SDS011;23278;52.110;6.050;2024-02-14T05:02:32;29.80;;;22.45;;
37411;SDS011;23278;52.110;6.050;2024-02-14T05:04:58;38.63;;;24.10;;
37411;SDS011;23278;52.110;6.050;2024-02-14T05:07:24;32.28;;;22.48;;
37411;SDS011;23278;52.110;6.050;2024-02-14T05:09:50;34.38;;;21.85;;
37411;SDS011;23278;52.110;6.050;2024-02-14T05:12:17;37.08;;;23.83;;
37411;SDS011;23278;52.110;6.050;2024-02-14T05:14:44;32.17;;;23.27;;
37411;SDS011;23278;52.110;6.050;2024-02-14T05:17:11;31.33;;;22.58;;
37411;SDS011;23278;52.110;6.050;2024-02-14T05:19:37;36.28;;;23.17;;
37411;SDS011;23278;52.110;6.050;2024-02-14T05:22:03;35.17;;;23.30;;
37411;SDS011;23278;52.110;6.050;2024-02-14T05:24:29;38.42;;;24.83;;
37411;SDS011;23278;52.110;6.050;2024-02-14T05:26:56;39.03;;;24.48;;
37411;SDS011;23278;52.110;6.050;2024-02-14T05:29:22;33.63;;;23.13;;
37411;SDS011;23278;52.110;6.050;2024-02-14T05:31:48;34.58;;;24.13;;
37411;SDS011;23278;52.110;6.050;2024-02-14T05:34:14;33.53;;;22.05;;
37411;SDS011;23278;52.110;6.050;2024-02-14T05:36:40;34.97;;;22.88;;
37411;SDS011;23278;52.110;6.050;2024-02-14T05:39:07;30.92;;;23.30;;
37411;SDS011;23278;52.110;6.050;2024-02-14T05:41:33;32.78;;;22.73;;
37411;SDS011;23278;52.110;6.050;2024-02-14T05:44:00;31.10;;;22.20;;
37411;SDS011;23278;52.110;6.050;2024-02-14T05:46:25;31.27;;;23.13;;
37411;SDS011;23278;52.110;6.050;2024-02-14T05:48:52;30.77;;;22.95;;
37411;SDS011;23278;52.110;6.050;2024-02-14T05:51:18;31.20;;;22.60;;
37411;SDS011;23278;52.110;6.050;2024-02-14T05:53:44;35.13;;;23.27;;
37411;SDS011;23278;52.110;6.050;2024-02-14T05:56:10;32.97;;;21.38;;
37411;SDS011;23278;52.110;6.050;2024-02-14T05:58:36;24.08;;;19.55;;
37411;SDS011;23278;52.110;6.050;2024-02-14T06:01:02;32.22;;;21.45;;
37411;SDS011;23278;52.110;6.050;2024-02-14T06:03:28;27.73;;;20.10;;
37411;SDS011;23278;52.110;6.050;2024-02-14T06:05:54;29.38;;;21.20;;
37411;SDS011;23278;52.110;6.050;2024-02-14T06:08:20;27.08;;;20.00;;
37411;SDS011;23278;52.110;6.050;2024-02-14T06:10:49;30.52;;;22.60;;
37411;SDS011;23278;52.110;6.050;2024-02-14T06:13:15;30.83;;;21.33;;
37411;SDS011;23278;52.110;6.050;2024-02-14T06:15:41;25.92;;;20.92;;
37411;SDS011;23278;52.110;6.050;2024-02-14T06:18:07;34.05;;;20.95;;
37411;SDS011;23278;52.110;6.050;2024-02-14T06:20:32;28.58;;;20.85;;
37411;SDS011;23278;52.110;6.050;2024-02-14T06:22:58;26.27;;;18.88;;
37411;SDS011;23278;52.110;6.050;2024-02-14T06:25:24;27.35;;;18.77;;
37411;SDS011;23278;52.110;6.050;2024-02-14T06:27:58;20.27;;;17.67;;
37411;SDS011;23278;52.110;6.050;2024-02-14T06:30:24;24.83;;;17.63;;
37411;SDS011;23278;52.110;6.050;2024-02-14T06:32:50;26.70;;;18.08;;
37411;SDS011;23278;52.110;6.050;2024-02-14T06:35:15;21.10;;;16.38;;
37411;SDS011;23278;52.110;6.050;2024-02-14T06:37:44;23.88;;;17.75;;
37411;SDS011;23278;52.110;6.050;2024-02-14T06:40:10;23.67;;;16.48;;
37411;SDS011;23278;52.110;6.050;2024-02-14T06:42:37;20.30;;;15.30;;
37411;SDS011;23278;52.110;6.050;2024-02-14T06:45:03;20.75;;;16.27;;
37411;SDS011;23278;52.110;6.050;2024-02-14T06:47:33;22.17;;;17.17;;
37411;SDS011;23278;52.110;6.050;2024-02-14T06:49:59;20.52;;;16.92;;
37411;SDS011;23278;52.110;6.050;2024-02-14T06:52:25;21.13;;;16.20;;
37411;SDS011;23278;52.110;6.050;2024-02-14T06:54:51;20.17;;;16.20;;
37411;SDS011;23278;52.110;6.050;2024-02-14T06:57:17;17.95;;;15.57;;
37411;SDS011;23278;52.110;6.050;2024-02-14T06:59:43;15.88;;;14.15;;
37411;SDS011;23278;52.110;6.050;2024-02-14T07:02:09;19.38;;;15.80;;
37411;SDS011;23278;52.110;6.050;2024-02-14T07:04:35;16.75;;;13.90;;
37411;SDS011;23278;52.110;6.050;2024-02-14T07:07:02;14.70;;;13.20;;
37411;SDS011;23278;52.110;6.050;2024-02-14T07:09:31;16.00;;;13.80;;
37411;SDS011;23278;52.110;6.050;2024-02-14T07:12:01;16.20;;;13.20;;
37411;SDS011;23278;52.110;6.050;2024-02-14T07:14:27;17.38;;;13.45;;
37411;SDS011;23278;52.110;6.050;2024-02-14T07:16:53;20.05;;;13.90;;
37411;SDS011;23278;52.110;6.050;2024-02-14T07:19:19;16.20;;;13.13;;
37411;SDS011;23278;52.110;6.050;2024-02-14T07:21:45;13.23;;;11.82;;
37411;SDS011;23278;52.110;6.050;2024-02-14T07:24:11;13.20;;;11.80;;
37411;SDS011;23278;52.110;6.050;2024-02-14T07:26:37;13.30;;;11.90;;
37411;SDS011;23278;52.110;6.050;2024-02-14T07:29:05;14.18;;;10.63;;
37411;SDS011;23278;52.110;6.050;2024-02-14T07:31:31;12.60;;;11.27;;
37411;SDS011;23278;52.110;6.050;2024-02-14T07:33:59;13.50;;;10.55;;
37411;SDS011;23278;52.110;6.050;2024-02-14T07:36:25;13.88;;;11.75;;
37411;SDS011;23278;52.110;6.050;2024-02-14T07:38:51;15.65;;;12.68;;
37411;SDS011;23278;52.110;6.050;2024-02-14T07:41:17;15.50;;;12.32;;
37411;SDS011;23278;52.110;6.050;2024-02-14T07:43:48;21.13;;;14.57;;
37411;SDS011;23278;52.110;6.050;2024-02-14T07:46:18;15.93;;;14.00;;
37411;SDS011;23278;52.110;6.050;2024-02-14T07:48:44;16.88;;;13.43;;
37411;SDS011;23278;52.110;6.050;2024-02-14T07:51:11;17.75;;;15.40;;
37411;SDS011;23278;52.110;6.050;2024-02-14T07:53:37;21.42;;;16.50;;
37411;SDS011;23278;52.110;6.050;2024-02-14T07:56:03;21.85;;;17.65;;
37411;SDS011;23278;52.110;6.050;2024-02-14T07:58:30;21.40;;;16.45;;
37411;SDS011;23278;52.110;6.050;2024-02-14T08:00:55;24.55;;;18.15;;
37411;SDS011;23278;52.110;6.050;2024-02-14T08:03:21;24.55;;;18.27;;
37411;SDS011;23278;52.110;6.050;2024-02-14T08:05:48;22.48;;;17.63;;
37411;SDS011;23278;52.110;6.050;2024-02-14T08:08:14;25.13;;;18.33;;
37411;SDS011;23278;52.110;6.050;2024-02-14T08:10:39;23.17;;;17.67;;
37411;SDS011;23278;52.110;6.050;2024-02-14T08:13:05;24.05;;;19.02;;
37411;SDS011;23278;52.110;6.050;2024-02-14T08:15:31;26.88;;;18.55;;
37411;SDS011;23278;52.110;6.050;2024-02-14T08:17:57;24.38;;;18.25;;
37411;SDS011;23278;52.110;6.050;2024-02-14T08:20:24;24.27;;;19.75;;
37411;SDS011;23278;52.110;6.050;2024-02-14T08:23:02;29.88;;;20.65;;
37411;SDS011;23278;52.110;6.050;2024-02-14T08:25:28;29.58;;;23.02;;
37411;SDS011;23278;52.110;6.050;2024-02-14T08:27:56;27.10;;;22.05;;
37411;SDS011;23278;52.110;6.050;2024-02-14T08:30:22;25.02;;;20.00;;
37411;SDS011;23278;52.110;6.050;2024-02-14T08:32:47;27.60;;;19.75;;
37411;SDS011;23278;52.110;6.050;2024-02-14T08:35:13;26.10;;;19.70;;
37411;SDS011;23278;52.110;6.050;2024-02-14T08:37:39;24.35;;;19.98;;
37411;SDS011;23278;52.110;6.050;2024-02-14T08:40:06;28.38;;;20.83;;
37411;SDS011;23278;52.110;6.050;2024-02-14T08:42:33;24.17;;;19.02;;
37411;SDS011;23278;52.110;6.050;2024-02-14T08:44:59;28.35;;;18.90;;
37411;SDS011;23278;52.110;6.050;2024-02-14T08:47:26;22.58;;;18.42;;
37411;SDS011;23278;52.110;6.050;2024-02-14T08:49:52;22.60;;;17.70;;
37411;SDS011;23278;52.110;6.050;2024-02-14T08:52:18;21.20;;;17.98;;
37411;SDS011;23278;52.110;6.050;2024-02-14T08:54:44;24.15;;;18.00;;
37411;SDS011;23278;52.110;6.050;2024-02-14T08:57:10;20.10;;;16.23;;
37411;SDS011;23278;52.110;6.050;2024-02-14T08:59:36;19.50;;;17.25;;
37411;SDS011;23278;52.110;6.050;2024-02-14T09:02:02;19.08;;;14.90;;
37411;SDS011;23278;52.110;6.050;2024-02-14T09:04:28;21.08;;;17.50;;
37411;SDS011;23278;52.110;6.050;2024-02-14T09:06:54;20.73;;;14.90;;
37411;SDS011;23278;52.110;6.050;2024-02-14T09:09:21;18.88;;;14.80;;
37411;SDS011;23278;52.110;6.050;2024-02-14T09:11:47;17.60;;;15.48;;
37411;SDS011;23278;52.110;6.050;2024-02-14T09:14:13;21.40;;;15.82;;
37411;SDS011;23278;52.110;6.050;2024-02-14T09:16:39;19.75;;;15.68;;
37411;SDS011;23278;52.110;6.050;2024-02-14T09:19:05;18.77;;;16.17;;
37411;SDS011;23278;52.110;6.050;2024-02-14T09:21:33;22.20;;;16.92;;
37411;SDS011;23278;52.110;6.050;2024-02-14T09:24:02;17.48;;;15.15;;
37411;SDS011;23278;52.110;6.050;2024-02-14T09:26:29;22.70;;;15.27;;
37411;SDS011;23278;52.110;6.050;2024-02-14T09:28:55;15.13;;;13.60;;
37411;SDS011;23278;52.110;6.050;2024-02-14T09:31:21;14.77;;;13.07;;
37411;SDS011;23278;52.110;6.050;2024-02-14T09:33:47;15.73;;;12.63;;
37411;SDS011;23278;52.110;6.050;2024-02-14T09:36:14;13.13;;;11.73;;
37411;SDS011;23278;52.110;6.050;2024-02-14T09:38:41;13.82;;;12.23;;
37411;SDS011;23278;52.110;6.050;2024-02-14T09:43:43;12.25;;;11.07;;
37411;SDS011;23278;52.110;6.050;2024-02-14T09:46:13;12.05;;;10.95;;
37411;SDS011;23278;52.110;6.050;2024-02-14T09:48:44;14.77;;;11.00;;
37411;SDS011;23278;52.110;6.050;2024-02-14T09:51:11;14.00;;;10.90;;
37411;SDS011;23278;52.110;6.050;2024-02-14T09:53:40;12.45;;;11.25;;
37411;SDS011;23278;52.110;6.050;2024-02-14T09:56:10;13.10;;;11.60;;
37411;SDS011;23278;52.110;6.050;2024-02-14T09:58:38;12.32;;;10.57;;
37411;SDS011;23278;52.110;6.050;2024-02-14T10:01:06;12.50;;;11.30;;
37411;SDS011;23278;52.110;6.050;2024-02-14T10:03:32;12.10;;;10.82;;
37411;SDS011;23278;52.110;6.050;2024-02-14T10:06:00;12.43;;;11.30;;
37411;SDS011;23278;52.110;6.050;2024-02-14T10:08:27;12.38;;;11.07;;
37411;SDS011;23278;52.110;6.050;2024-02-14T10:10:56;13.55;;;11.60;;
37411;SDS011;23278;52.110;6.050;2024-02-14T10:13:23;14.60;;;12.00;;
37411;SDS011;23278;52.110;6.050;2024-02-14T10:15:51;18.90;;;12.95;;
37411;SDS011;23278;52.110;6.050;2024-02-14T10:18:17;13.48;;;12.13;;
37411;SDS011;23278;52.110;6.050;2024-02-14T10:20:55;12.40;;;11.20;;
37411;SDS011;23278;52.110;6.050;2024-02-14T10:23:21;12.77;;;11.55;;
37411;SDS011;23278;52.110;6.050;2024-02-14T10:25:52;13.30;;;11.93;;
37411;SDS011;23278;52.110;6.050;2024-02-14T10:28:21;13.63;;;12.23;;
37411;SDS011;23278;52.110;6.050;2024-02-14T10:30:48;15.02;;;13.40;;
37411;SDS011;23278;52.110;6.050;2024-02-14T10:33:17;17.70;;;14.55;;
37411;SDS011;23278;52.110;6.050;2024-02-14T10:35:44;17.70;;;14.43;;
37411;SDS011;23278;52.110;6.050;2024-02-14T10:38:11;19.63;;;15.18;;
37411;SDS011;23278;52.110;6.050;2024-02-14T10:40:37;19.85;;;15.98;;
37411;SDS011;23278;52.110;6.050;2024-02-14T10:43:05;15.82;;;13.77;;
37411;SDS011;23278;52.110;6.050;2024-02-14T10:45:32;21.63;;;16.58;;
37411;SDS011;23278;52.110;6.050;2024-02-14T10:47:58;18.15;;;15.40;;
37411;SDS011;23278;52.110;6.050;2024-02-14T10:50:26;18.25;;;14.82;;
37411;SDS011;23278;52.110;6.050;2024-02-14T10:52:55;23.00;;;15.07;;
37411;SDS011;23278;52.110;6.050;2024-02-14T10:55:24;17.73;;;14.07;;
37411;SDS011;23278;52.110;6.050;2024-02-14T10:57:55;19.52;;;14.90;;
37411;SDS011;23278;52.110;6.050;2024-02-14T11:00:22;19.25;;;13.85;;
37411;SDS011;23278;52.110;6.050;2024-02-14T11:02:49;14.63;;;12.55;;
37411;SDS011;23278;52.110;6.050;2024-02-14T11:05:17;15.95;;;12.65;;
37411;SDS011;23278;52.110;6.050;2024-02-14T11:07:48;15.18;;;12.48;;
37411;SDS011;23278;52.110;6.050;2024-02-14T11:10:17;17.45;;;13.90;;
37411;SDS011;23278;52.110;6.050;2024-02-14T11:12:45;13.70;;;12.40;;
37411;SDS011;23278;52.110;6.050;2024-02-14T11:15:22;16.05;;;11.48;;
37411;SDS011;23278;52.110;6.050;2024-02-14T11:18:03;13.00;;;11.68;;
37411;SDS011;23278;52.110;6.050;2024-02-14T11:20:31;12.60;;;11.30;;
37411;SDS011;23278;52.110;6.050;2024-02-14T11:23:03;14.55;;;13.00;;
37411;SDS011;23278;52.110;6.050;2024-02-14T11:25:37;14.88;;;12.88;;
37411;SDS011;23278;52.110;6.050;2024-02-14T11:28:13;14.25;;;12.57;;
37411;SDS011;23278;52.110;6.050;2024-02-14T11:30:45;14.70;;;11.30;;
37411;SDS011;23278;52.110;6.050;2024-02-14T11:35:48;15.48;;;13.15;;
37411;SDS011;23278;52.110;6.050;2024-02-14T11:38:16;18.50;;;12.57;;
37411;SDS011;23278;52.110;6.050;2024-02-14T11:40:43;12.52;;;11.30;;
37411;SDS011;23278;52.110;6.050;2024-02-14T11:43:13;16.75;;;12.13;;
37411;SDS011;23278;52.110;6.050;2024-02-14T11:45:41;14.52;;;12.18;;
37411;SDS011;23278;52.110;6.050;2024-02-14T11:48:13;17.02;;;11.63;;
37411;SDS011;23278;52.110;6.050;2024-02-14T11:50:40;12.57;;;10.02;;
37411;SDS011;23278;52.110;6.050;2024-02-14T11:53:07;12.30;;;10.90;;
37411;SDS011;23278;52.110;6.050;2024-02-14T11:55:42;10.07;;;9.05;;
37411;SDS011;23278;52.110;6.050;2024-02-14T11:58:11;10.60;;;9.52;;
37411;SDS011;23278;52.110;6.050;2024-02-14T12:00:39;9.77;;;8.88;;
37411;SDS011;23278;52.110;6.050;2024-02-14T12:03:10;10.73;;;9.05;;
37411;SDS011;23278;52.110;6.050;2024-02-14T12:05:47;10.13;;;9.13;;
37411;SDS011;23278;52.110;6.050;2024-02-14T12:08:18;10.88;;;9.85;;
37411;SDS011;23278;52.110;6.050;2024-02-14T12:10:45;9.60;;;8.30;;
37411;SDS011;23278;52.110;6.050;2024-02-14T12:13:13;12.63;;;8.68;;
37411;SDS011;23278;52.110;6.050;2024-02-14T12:15:41;9.07;;;8.35;;
37411;SDS011;23278;52.110;6.050;2024-02-14T12:18:10;13.57;;;8.48;;
37411;SDS011;23278;52.110;6.050;2024-02-14T12:20:36;10.30;;;8.98;;
37411;SDS011;23278;52.110;6.050;2024-02-14T12:23:06;11.27;;;8.90;;
37411;SDS011;23278;52.110;6.050;2024-02-14T12:25:32;10.13;;;8.80;;
37411;SDS011;23278;52.110;6.050;2024-02-14T12:27:59;11.45;;;7.97;;
37411;SDS011;23278;52.110;6.050;2024-02-14T12:30:41;9.73;;;8.73;;
37411;SDS011;23278;52.110;6.050;2024-02-14T12:33:14;8.98;;;8.07;;
37411;SDS011;23278;52.110;6.050;2024-02-14T12:35:41;10.13;;;8.65;;
37411;SDS011;23278;52.110;6.050;2024-02-14T12:38:09;8.02;;;7.22;;
37411;SDS011;23278;52.110;6.050;2024-02-14T12:40:35;7.60;;;6.80;;
37411;SDS011;23278;52.110;6.050;2024-02-14T12:43:02;7.82;;;7.07;;
37411;SDS011;23278;52.110;6.050;2024-02-14T12:45:28;7.38;;;6.60;;
37411;SDS011;23278;52.110;6.050;2024-02-14T12:47:54;7.10;;;6.40;;
37411;SDS011;23278;52.110;6.050;2024-02-14T12:50:21;7.07;;;6.38;;
37411;SDS011;23278;52.110;6.050;2024-02-14T12:52:47;6.15;;;5.65;;
37411;SDS011;23278;52.110;6.050;2024-02-14T12:55:14;7.72;;;6.55;;
37411;SDS011;23278;52.110;6.050;2024-02-14T12:57:40;7.20;;;5.65;;
37411;SDS011;23278;52.110;6.050;2024-02-14T13:00:06;6.05;;;5.50;;
37411;SDS011;23278;52.110;6.050;2024-02-14T13:02:34;5.55;;;5.00;;
37411;SDS011;23278;52.110;6.050;2024-02-14T13:05:01;5.95;;;5.32;;
37411;SDS011;23278;52.110;6.050;2024-02-14T13:07:27;4.75;;;4.35;;
37411;SDS011;23278;52.110;6.050;2024-02-14T13:09:54;4.72;;;4.20;;
37411;SDS011;23278;52.110;6.050;2024-02-14T13:12:20;5.18;;;4.07;;
37411;SDS011;23278;52.110;6.050;2024-02-14T13:14:46;5.22;;;4.20;;
37411;SDS011;23278;52.110;6.050;2024-02-14T13:17:12;4.10;;;3.78;;
37411;SDS011;23278;52.110;6.050;2024-02-14T13:19:39;3.83;;;3.50;;
37411;SDS011;23278;52.110;6.050;2024-02-14T13:22:05;4.82;;;4.07;;
37411;SDS011;23278;52.110;6.050;2024-02-14T13:24:31;3.35;;;3.05;;
37411;SDS011;23278;52.110;6.050;2024-02-14T13:26:57;4.07;;;3.22;;
37411;SDS011;23278;52.110;6.050;2024-02-14T13:29:23;3.75;;;3.10;;
37411;SDS011;23278;52.110;6.050;2024-02-14T13:31:53;2.88;;;2.60;;
37411;SDS011;23278;52.110;6.050;2024-02-14T13:34:19;2.78;;;2.55;;
37411;SDS011;23278;52.110;6.050;2024-02-14T13:36:45;3.38;;;2.65;;
37411;SDS011;23278;52.110;6.050;2024-02-14T13:39:13;3.20;;;2.78;;
37411;SDS011;23278;52.110;6.050;2024-02-14T13:41:40;3.33;;;2.35;;
37411;SDS011;23278;52.110;6.050;2024-02-14T13:44:09;3.63;;;2.47;;
37411;SDS011;23278;52.110;6.050;2024-02-14T13:46:35;2.70;;;2.22;;
37411;SDS011;23278;52.110;6.050;2024-02-14T13:49:02;3.90;;;2.97;;
37411;SDS011;23278;52.110;6.050;2024-02-14T13:51:29;2.50;;;2.25;;
37411;SDS011;23278;52.110;6.050;2024-02-14T13:53:55;3.40;;;3.10;;
37411;SDS011;23278;52.110;6.050;2024-02-14T13:56:21;3.53;;;2.60;;
37411;SDS011;23278;52.110;6.050;2024-02-14T13:58:48;3.22;;;2.53;;
37411;SDS011;23278;52.110;6.050;2024-02-14T14:01:17;3.65;;;3.10;;
37411;SDS011;23278;52.110;6.050;2024-02-14T14:03:43;2.70;;;2.50;;
37411;SDS011;23278;52.110;6.050;2024-02-14T14:06:09;3.85;;;2.40;;
37411;SDS011;23278;52.110;6.050;2024-02-14T14:08:35;4.57;;;2.45;;
37411;SDS011;23278;52.110;6.050;2024-02-14T14:11:04;2.33;;;2.13;;
37411;SDS011;23278;52.110;6.050;2024-02-14T14:13:30;2.67;;;2.20;;
37411;SDS011;23278;52.110;6.050;2024-02-14T14:15:59;2.13;;;1.80;;
37411;SDS011;23278;52.110;6.050;2024-02-14T14:18:25;3.47;;;2.58;;
37411;SDS011;23278;52.110;6.050;2024-02-14T14:20:51;1.77;;;1.15;;
37411;SDS011;23278;52.110;6.050;2024-02-14T14:23:18;9.35;;;4.72;;
37411;SDS011;23278;52.110;6.050;2024-02-14T14:25:47;1.83;;;1.33;;
37411;SDS011;23278;52.110;6.050;2024-02-14T14:28:13;2.05;;;1.67;;
37411;SDS011;23278;52.110;6.050;2024-02-14T14:30:40;2.28;;;1.90;;
37411;SDS011;23278;52.110;6.050;2024-02-14T14:33:06;4.63;;;2.33;;
37411;SDS011;23278;52.110;6.050;2024-02-14T14:35:35;3.72;;;3.28;;
37411;SDS011;23278;52.110;6.050;2024-02-14T14:38:04;2.97;;;2.67;;
37411;SDS011;23278;52.110;6.050;2024-02-14T14:40:30;3.85;;;3.42;;
37411;SDS011;23278;52.110;6.050;2024-02-14T14:42:59;5.90;;;5.32;;
37411;SDS011;23278;52.110;6.050;2024-02-14T14:45:25;5.07;;;4.50;;
37411;SDS011;23278;52.110;6.050;2024-02-14T14:47:53;7.05;;;6.40;;
37411;SDS011;23278;52.110;6.050;2024-02-14T14:50:19;6.10;;;5.50;;
37411;SDS011;23278;52.110;6.050;2024-02-14T14:52:46;6.97;;;6.28;;
37411;SDS011;23278;52.110;6.050;2024-02-14T14:55:15;7.90;;;7.10;;